sensor_id;sensor_type;location;lat;lon;timestamp;P1;durP1;ratioP1;P2;durP2;ratioP2
21833;SDS011;11079;51.092;3.458;2023-06-19T00:02:09;10.30;;;5.75;;
21833;SDS011;11079;51.092;3.458;2023-06-19T00:04:34;8.40;;;5.47;;
21833;SDS011;11079;51.092;3.458;2023-06-19T00:07:00;8.48;;;6.20;;
21833;SDS011;11079;51.092;3.458;2023-06-19T00:09:26;5.47;;;4.97;;
21833;SDS011;11079;51.092;3.458;2023-06-19T00:11:52;7.35;;;5.20;;
21833;SDS011;11079;51.092;3.458;2023-06-19T00:14:17;7.88;;;5.05;;
21833;SDS011;11079;51.092;3.458;2023-06-19T00:16:43;7.38;;;5.43;;
21833;SDS011;11079;51.092;3.458;2023-06-19T00:19:09;5.88;;;4.90;;
21833;SDS011;11079;51.092;3.458;2023-06-19T00:21:37;5.28;;;4.53;;
21833;SDS011;11079;51.092;3.458;2023-06-19T00:24:03;7.07;;;4.97;;
21833;SDS011;11079;51.092;3.458;2023-06-19T00:26:30;7.68;;;6.07;;
21833;SDS011;11079;51.092;3.458;2023-06-19T00:28:56;6.68;;;5.85;;
21833;SDS011;11079;51.092;3.458;2023-06-19T00:31:22;9.25;;;6.40;;
21833;SDS011;11079;51.092;3.458;2023-06-19T00:33:47;8.60;;;7.07;;
21833;SDS011;11079;51.092;3.458;2023-06-19T00:36:14;8.00;;;6.82;;
21833;SDS011;11079;51.092;3.458;2023-06-19T00:38:40;10.93;;;8.25;;
21833;SDS011;11079;51.092;3.458;2023-06-19T00:41:07;12.32;;;8.50;;
21833;SDS011;11079;51.092;3.458;2023-06-19T00:43:33;14.18;;;10.48;;
21833;SDS011;11079;51.092;3.458;2023-06-19T00:46:00;16.60;;;11.10;;
21833;SDS011;11079;51.092;3.458;2023-06-19T00:48:27;15.65;;;11.38;;
21833;SDS011;11079;51.092;3.458;2023-06-19T00:50:53;15.05;;;10.60;;
21833;SDS011;11079;51.092;3.458;2023-06-19T00:53:21;15.27;;;12.02;;
21833;SDS011;11079;51.092;3.458;2023-06-19T00:55:47;18.45;;;12.00;;
21833;SDS011;11079;51.092;3.458;2023-06-19T00:58:15;15.60;;;11.82;;
21833;SDS011;11079;51.092;3.458;2023-06-19T01:00:40;18.33;;;11.38;;
21833;SDS011;11079;51.092;3.458;2023-06-19T01:03:06;15.48;;;11.65;;
21833;SDS011;11079;51.092;3.458;2023-06-19T01:05:32;17.77;;;12.35;;
21833;SDS011;11079;51.092;3.458;2023-06-19T01:10:36;18.70;;;12.75;;
21833;SDS011;11079;51.092;3.458;2023-06-19T01:13:18;18.58;;;13.20;;
21833;SDS011;11079;51.092;3.458;2023-06-19T01:15:57;18.65;;;12.95;;
21833;SDS011;11079;51.092;3.458;2023-06-19T01:18:32;17.33;;;12.98;;
21833;SDS011;11079;51.092;3.458;2023-06-19T01:21:10;16.38;;;11.95;;
21833;SDS011;11079;51.092;3.458;2023-06-19T01:23:37;17.33;;;11.20;;
21833;SDS011;11079;51.092;3.458;2023-06-19T01:26:03;14.15;;;10.38;;
21833;SDS011;11079;51.092;3.458;2023-06-19T01:28:28;12.18;;;9.05;;
21833;SDS011;11079;51.092;3.458;2023-06-19T01:30:57;11.60;;;8.38;;
21833;SDS011;11079;51.092;3.458;2023-06-19T01:33:27;11.43;;;7.30;;
21833;SDS011;11079;51.092;3.458;2023-06-19T01:35:55;8.20;;;6.50;;
21833;SDS011;11079;51.092;3.458;2023-06-19T01:38:22;8.45;;;6.15;;
21833;SDS011;11079;51.092;3.458;2023-06-19T01:40:52;7.28;;;5.07;;
21833;SDS011;11079;51.092;3.458;2023-06-19T01:43:21;8.07;;;5.07;;
21833;SDS011;11079;51.092;3.458;2023-06-19T01:45:48;8.85;;;7.32;;
21833;SDS011;11079;51.092;3.458;2023-06-19T01:48:15;12.90;;;6.95;;
21833;SDS011;11079;51.092;3.458;2023-06-19T01:50:45;9.95;;;7.35;;
21833;SDS011;11079;51.092;3.458;2023-06-19T01:53:14;8.98;;;6.70;;
21833;SDS011;11079;51.092;3.458;2023-06-19T01:55:40;9.77;;;6.40;;
21833;SDS011;11079;51.092;3.458;2023-06-19T01:58:31;8.68;;;6.30;;
21833;SDS011;11079;51.092;3.458;2023-06-19T02:00:58;5.97;;;5.20;;
21833;SDS011;11079;51.092;3.458;2023-06-19T02:03:24;6.18;;;5.03;;
21833;SDS011;11079;51.092;3.458;2023-06-19T02:05:52;8.30;;;5.78;;
21833;SDS011;11079;51.092;3.458;2023-06-19T02:08:18;9.35;;;5.80;;
21833;SDS011;11079;51.092;3.458;2023-06-19T02:10:43;8.77;;;6.72;;
21833;SDS011;11079;51.092;3.458;2023-06-19T02:13:09;6.30;;;5.63;;
21833;SDS011;11079;51.092;3.458;2023-06-19T02:15:35;7.97;;;6.57;;
21833;SDS011;11079;51.092;3.458;2023-06-19T02:18:00;9.18;;;6.53;;
21833;SDS011;11079;51.092;3.458;2023-06-19T02:20:27;9.07;;;7.38;;
21833;SDS011;11079;51.092;3.458;2023-06-19T02:22:52;8.82;;;7.63;;
21833;SDS011;11079;51.092;3.458;2023-06-19T02:25:18;9.90;;;7.72;;
21833;SDS011;11079;51.092;3.458;2023-06-19T02:27:44;11.13;;;9.27;;
21833;SDS011;11079;51.092;3.458;2023-06-19T02:30:11;12.23;;;9.68;;
21833;SDS011;11079;51.092;3.458;2023-06-19T02:32:40;12.30;;;10.15;;
21833;SDS011;11079;51.092;3.458;2023-06-19T02:35:06;12.48;;;10.35;;
21833;SDS011;11079;51.092;3.458;2023-06-19T02:37:35;15.73;;;11.35;;
21833;SDS011;11079;51.092;3.458;2023-06-19T02:40:02;12.95;;;10.63;;
21833;SDS011;11079;51.092;3.458;2023-06-19T02:42:29;14.73;;;10.95;;
21833;SDS011;11079;51.092;3.458;2023-06-19T02:44:55;13.93;;;11.68;;
21833;SDS011;11079;51.092;3.458;2023-06-19T02:47:28;17.35;;;12.23;;
21833;SDS011;11079;51.092;3.458;2023-06-19T02:49:54;14.98;;;11.48;;
21833;SDS011;11079;51.092;3.458;2023-06-19T02:52:20;19.05;;;12.95;;
21833;SDS011;11079;51.092;3.458;2023-06-19T02:54:46;17.65;;;14.25;;
21833;SDS011;11079;51.092;3.458;2023-06-19T02:57:12;17.05;;;13.88;;
21833;SDS011;11079;51.092;3.458;2023-06-19T02:59:37;20.38;;;15.77;;
21833;SDS011;11079;51.092;3.458;2023-06-19T03:02:03;18.80;;;15.80;;
21833;SDS011;11079;51.092;3.458;2023-06-19T03:04:28;20.48;;;16.83;;
21833;SDS011;11079;51.092;3.458;2023-06-19T03:06:54;24.50;;;17.30;;
21833;SDS011;11079;51.092;3.458;2023-06-19T03:09:20;24.13;;;17.48;;
21833;SDS011;11079;51.092;3.458;2023-06-19T03:11:45;23.65;;;17.55;;
21833;SDS011;11079;51.092;3.458;2023-06-19T03:14:11;22.77;;;17.95;;
21833;SDS011;11079;51.092;3.458;2023-06-19T03:16:40;25.42;;;19.05;;
21833;SDS011;11079;51.092;3.458;2023-06-19T03:19:07;26.92;;;19.75;;
21833;SDS011;11079;51.092;3.458;2023-06-19T03:21:54;28.02;;;20.27;;
21833;SDS011;11079;51.092;3.458;2023-06-19T03:24:20;28.27;;;20.30;;
21833;SDS011;11079;51.092;3.458;2023-06-19T03:26:45;28.60;;;22.05;;
21833;SDS011;11079;51.092;3.458;2023-06-19T03:29:11;30.25;;;23.52;;
21833;SDS011;11079;51.092;3.458;2023-06-19T03:31:37;29.90;;;20.90;;
21833;SDS011;11079;51.092;3.458;2023-06-19T03:34:04;29.80;;;22.55;;
21833;SDS011;11079;51.092;3.458;2023-06-19T03:36:30;30.30;;;23.25;;
21833;SDS011;11079;51.092;3.458;2023-06-19T03:38:56;28.83;;;22.58;;
21833;SDS011;11079;51.092;3.458;2023-06-19T03:41:21;28.92;;;22.38;;
21833;SDS011;11079;51.092;3.458;2023-06-19T03:43:48;33.97;;;23.40;;
21833;SDS011;11079;51.092;3.458;2023-06-19T03:46:13;36.65;;;24.13;;
21833;SDS011;11079;51.092;3.458;2023-06-19T03:48:39;31.05;;;24.85;;
21833;SDS011;11079;51.092;3.458;2023-06-19T03:51:04;32.45;;;23.55;;
21833;SDS011;11079;51.092;3.458;2023-06-19T03:53:30;34.17;;;26.38;;
21833;SDS011;11079;51.092;3.458;2023-06-19T03:55:56;36.60;;;25.13;;
21833;SDS011;11079;51.092;3.458;2023-06-19T03:58:22;36.08;;;25.02;;
21833;SDS011;11079;51.092;3.458;2023-06-19T04:00:47;35.10;;;25.20;;
21833;SDS011;11079;51.092;3.458;2023-06-19T04:03:14;35.03;;;24.73;;
21833;SDS011;11079;51.092;3.458;2023-06-19T04:05:40;33.67;;;25.70;;
21833;SDS011;11079;51.092;3.458;2023-06-19T04:08:07;36.83;;;26.55;;
21833;SDS011;11079;51.092;3.458;2023-06-19T04:10:32;36.20;;;25.52;;
21833;SDS011;11079;51.092;3.458;2023-06-19T04:12:58;40.80;;;27.85;;
21833;SDS011;11079;51.092;3.458;2023-06-19T04:15:25;36.75;;;24.50;;
21833;SDS011;11079;51.092;3.458;2023-06-19T04:17:51;32.95;;;24.60;;
21833;SDS011;11079;51.092;3.458;2023-06-19T04:20:18;36.13;;;25.00;;
21833;SDS011;11079;51.092;3.458;2023-06-19T04:22:45;33.75;;;24.25;;
21833;SDS011;11079;51.092;3.458;2023-06-19T04:25:11;34.42;;;24.40;;
21833;SDS011;11079;51.092;3.458;2023-06-19T04:27:37;35.05;;;23.58;;
21833;SDS011;11079;51.092;3.458;2023-06-19T04:30:07;34.05;;;23.65;;
21833;SDS011;11079;51.092;3.458;2023-06-19T04:32:33;33.92;;;25.40;;
21833;SDS011;11079;51.092;3.458;2023-06-19T04:35:09;34.33;;;25.05;;
21833;SDS011;11079;51.092;3.458;2023-06-19T04:37:35;34.00;;;24.05;;
21833;SDS011;11079;51.092;3.458;2023-06-19T04:40:03;34.75;;;23.88;;
21833;SDS011;11079;51.092;3.458;2023-06-19T04:42:30;35.25;;;24.63;;
21833;SDS011;11079;51.092;3.458;2023-06-19T04:44:56;34.47;;;24.98;;
21833;SDS011;11079;51.092;3.458;2023-06-19T04:47:25;33.00;;;23.02;;
21833;SDS011;11079;51.092;3.458;2023-06-19T04:49:50;34.97;;;24.38;;
21833;SDS011;11079;51.092;3.458;2023-06-19T04:52:17;33.28;;;22.08;;
21833;SDS011;11079;51.092;3.458;2023-06-19T04:54:43;31.92;;;23.48;;
21833;SDS011;11079;51.092;3.458;2023-06-19T04:57:09;30.60;;;23.40;;
21833;SDS011;11079;51.092;3.458;2023-06-19T04:59:35;35.30;;;24.17;;
21833;SDS011;11079;51.092;3.458;2023-06-19T05:02:02;34.63;;;24.20;;
21833;SDS011;11079;51.092;3.458;2023-06-19T05:04:28;38.25;;;24.38;;
21833;SDS011;11079;51.092;3.458;2023-06-19T05:06:57;32.83;;;23.27;;
21833;SDS011;11079;51.092;3.458;2023-06-19T05:09:23;33.75;;;22.75;;
21833;SDS011;11079;51.092;3.458;2023-06-19T05:11:49;31.92;;;22.50;;
21833;SDS011;11079;51.092;3.458;2023-06-19T05:14:15;33.10;;;22.65;;
21833;SDS011;11079;51.092;3.458;2023-06-19T05:16:42;31.20;;;22.95;;
21833;SDS011;11079;51.092;3.458;2023-06-19T05:19:08;32.78;;;22.92;;
21833;SDS011;11079;51.092;3.458;2023-06-19T05:21:33;29.42;;;22.08;;
21833;SDS011;11079;51.092;3.458;2023-06-19T05:24:00;30.77;;;22.33;;
21833;SDS011;11079;51.092;3.458;2023-06-19T05:26:26;30.05;;;21.60;;
21833;SDS011;11079;51.092;3.458;2023-06-19T05:28:53;29.25;;;21.08;;
21833;SDS011;11079;51.092;3.458;2023-06-19T05:31:18;32.53;;;22.25;;
21833;SDS011;11079;51.092;3.458;2023-06-19T05:33:44;29.38;;;20.40;;
21833;SDS011;11079;51.092;3.458;2023-06-19T05:36:10;27.65;;;19.02;;
21833;SDS011;11079;51.092;3.458;2023-06-19T05:38:37;30.75;;;20.98;;
21833;SDS011;11079;51.092;3.458;2023-06-19T05:41:13;28.20;;;20.58;;
21833;SDS011;11079;51.092;3.458;2023-06-19T05:43:42;29.02;;;19.95;;
21833;SDS011;11079;51.092;3.458;2023-06-19T05:46:09;30.63;;;21.40;;
21833;SDS011;11079;51.092;3.458;2023-06-19T05:48:36;31.90;;;21.25;;
21833;SDS011;11079;51.092;3.458;2023-06-19T05:51:02;28.98;;;21.65;;
21833;SDS011;11079;51.092;3.458;2023-06-19T05:53:28;30.75;;;20.70;;
21833;SDS011;11079;51.092;3.458;2023-06-19T05:55:56;26.95;;;20.95;;
21833;SDS011;11079;51.092;3.458;2023-06-19T05:58:21;28.27;;;20.08;;
21833;SDS011;11079;51.092;3.458;2023-06-19T06:00:49;34.85;;;21.50;;
21833;SDS011;11079;51.092;3.458;2023-06-19T06:03:14;28.85;;;21.17;;
21833;SDS011;11079;51.092;3.458;2023-06-19T06:05:40;28.13;;;20.40;;
21833;SDS011;11079;51.092;3.458;2023-06-19T06:08:07;30.35;;;21.23;;
21833;SDS011;11079;51.092;3.458;2023-06-19T06:10:33;26.52;;;19.35;;
21833;SDS011;11079;51.092;3.458;2023-06-19T06:12:59;29.15;;;20.35;;
21833;SDS011;11079;51.092;3.458;2023-06-19T06:15:24;24.23;;;18.02;;
21833;SDS011;11079;51.092;3.458;2023-06-19T06:17:50;26.63;;;20.50;;
21833;SDS011;11079;51.092;3.458;2023-06-19T06:20:17;28.60;;;20.55;;
21833;SDS011;11079;51.092;3.458;2023-06-19T06:22:43;31.40;;;20.92;;
21833;SDS011;11079;51.092;3.458;2023-06-19T06:25:11;27.20;;;19.30;;
21833;SDS011;11079;51.092;3.458;2023-06-19T06:27:37;28.17;;;19.63;;
21833;SDS011;11079;51.092;3.458;2023-06-19T06:30:02;25.27;;;19.25;;
21833;SDS011;11079;51.092;3.458;2023-06-19T06:32:28;25.58;;;19.02;;
21833;SDS011;11079;51.092;3.458;2023-06-19T06:34:56;26.98;;;18.85;;
21833;SDS011;11079;51.092;3.458;2023-06-19T06:37:22;26.70;;;18.40;;
21833;SDS011;11079;51.092;3.458;2023-06-19T06:39:48;25.42;;;17.83;;
21833;SDS011;11079;51.092;3.458;2023-06-19T06:42:14;24.08;;;18.20;;
21833;SDS011;11079;51.092;3.458;2023-06-19T06:44:40;23.67;;;17.10;;
21833;SDS011;11079;51.092;3.458;2023-06-19T06:47:06;23.08;;;16.17;;
21833;SDS011;11079;51.092;3.458;2023-06-19T06:49:32;21.80;;;16.08;;
21833;SDS011;11079;51.092;3.458;2023-06-19T06:51:57;20.90;;;15.77;;
21833;SDS011;11079;51.092;3.458;2023-06-19T06:54:23;23.48;;;16.83;;
21833;SDS011;11079;51.092;3.458;2023-06-19T06:56:48;25.52;;;16.85;;
21833;SDS011;11079;51.092;3.458;2023-06-19T06:59:14;25.42;;;16.83;;
21833;SDS011;11079;51.092;3.458;2023-06-19T07:01:43;25.92;;;16.63;;
21833;SDS011;11079;51.092;3.458;2023-06-19T07:04:08;21.27;;;16.60;;
21833;SDS011;11079;51.092;3.458;2023-06-19T07:06:34;20.55;;;16.05;;
21833;SDS011;11079;51.092;3.458;2023-06-19T07:08:59;21.23;;;16.45;;
21833;SDS011;11079;51.092;3.458;2023-06-19T07:11:25;22.35;;;15.90;;
21833;SDS011;11079;51.092;3.458;2023-06-19T07:13:51;26.13;;;15.68;;
21833;SDS011;11079;51.092;3.458;2023-06-19T07:16:16;24.33;;;16.50;;
21833;SDS011;11079;51.092;3.458;2023-06-19T07:18:42;24.17;;;16.27;;
21833;SDS011;11079;51.092;3.458;2023-06-19T07:21:11;23.17;;;17.02;;
21833;SDS011;11079;51.092;3.458;2023-06-19T07:23:40;22.55;;;16.25;;
21833;SDS011;11079;51.092;3.458;2023-06-19T07:26:07;23.88;;;16.88;;
21833;SDS011;11079;51.092;3.458;2023-06-19T07:28:32;23.85;;;16.58;;
21833;SDS011;11079;51.092;3.458;2023-06-19T07:31:01;25.58;;;17.20;;
21833;SDS011;11079;51.092;3.458;2023-06-19T07:33:27;18.73;;;15.55;;
21833;SDS011;11079;51.092;3.458;2023-06-19T07:35:52;24.33;;;16.33;;
21833;SDS011;11079;51.092;3.458;2023-06-19T07:38:18;24.65;;;16.92;;
21833;SDS011;11079;51.092;3.458;2023-06-19T07:40:44;20.48;;;15.38;;
21833;SDS011;11079;51.092;3.458;2023-06-19T07:43:09;15.82;;;13.27;;
21833;SDS011;11079;51.092;3.458;2023-06-19T07:45:35;19.88;;;15.95;;
21833;SDS011;11079;51.092;3.458;2023-06-19T07:48:01;20.35;;;15.00;;
21833;SDS011;11079;51.092;3.458;2023-06-19T07:50:27;19.63;;;14.65;;
21833;SDS011;11079;51.092;3.458;2023-06-19T07:52:53;20.42;;;14.25;;
21833;SDS011;11079;51.092;3.458;2023-06-19T07:55:18;17.63;;;15.15;;
21833;SDS011;11079;51.092;3.458;2023-06-19T07:57:44;21.80;;;13.82;;
21833;SDS011;11079;51.092;3.458;2023-06-19T08:00:10;20.85;;;15.55;;
21833;SDS011;11079;51.092;3.458;2023-06-19T08:02:39;20.17;;;15.05;;
21833;SDS011;11079;51.092;3.458;2023-06-19T08:05:06;19.55;;;14.40;;
21833;SDS011;11079;51.092;3.458;2023-06-19T08:07:33;19.52;;;14.68;;
21833;SDS011;11079;51.092;3.458;2023-06-19T08:10:02;16.77;;;13.00;;
21833;SDS011;11079;51.092;3.458;2023-06-19T08:12:31;21.10;;;14.55;;
21833;SDS011;11079;51.092;3.458;2023-06-19T08:14:56;20.48;;;14.75;;
21833;SDS011;11079;51.092;3.458;2023-06-19T08:17:22;19.42;;;16.40;;
21833;SDS011;11079;51.092;3.458;2023-06-19T08:19:48;20.60;;;16.92;;
21833;SDS011;11079;51.092;3.458;2023-06-19T08:22:14;24.80;;;17.73;;
21833;SDS011;11079;51.092;3.458;2023-06-19T08:24:40;19.98;;;17.63;;
21833;SDS011;11079;51.092;3.458;2023-06-19T08:27:06;21.27;;;17.30;;
21833;SDS011;11079;51.092;3.458;2023-06-19T08:29:32;22.25;;;17.13;;
21833;SDS011;11079;51.092;3.458;2023-06-19T08:31:57;20.80;;;16.45;;
21833;SDS011;11079;51.092;3.458;2023-06-19T08:34:24;20.88;;;16.02;;
21833;SDS011;11079;51.092;3.458;2023-06-19T08:36:51;23.25;;;16.58;;
21833;SDS011;11079;51.092;3.458;2023-06-19T08:39:16;23.05;;;16.85;;
21833;SDS011;11079;51.092;3.458;2023-06-19T08:41:43;18.77;;;15.75;;
21833;SDS011;11079;51.092;3.458;2023-06-19T08:44:08;18.23;;;15.30;;
21833;SDS011;11079;51.092;3.458;2023-06-19T08:46:34;20.67;;;15.77;;
21833;SDS011;11079;51.092;3.458;2023-06-19T08:49:02;18.92;;;14.98;;
21833;SDS011;11079;51.092;3.458;2023-06-19T08:51:31;20.00;;;14.88;;
21833;SDS011;11079;51.092;3.458;2023-06-19T08:54:01;17.20;;;15.35;;
21833;SDS011;11079;51.092;3.458;2023-06-19T08:56:29;21.50;;;16.70;;
21833;SDS011;11079;51.092;3.458;2023-06-19T08:59:11;17.50;;;15.13;;
21833;SDS011;11079;51.092;3.458;2023-06-19T09:01:38;20.67;;;15.18;;
21833;SDS011;11079;51.092;3.458;2023-06-19T09:04:14;18.25;;;14.20;;
21833;SDS011;11079;51.092;3.458;2023-06-19T09:09:43;18.88;;;16.85;;
21833;SDS011;11079;51.092;3.458;2023-06-19T09:12:12;21.10;;;16.55;;
21833;SDS011;11079;51.092;3.458;2023-06-19T09:14:43;18.27;;;15.90;;
21833;SDS011;11079;51.092;3.458;2023-06-19T09:17:11;19.20;;;15.70;;
21833;SDS011;11079;51.092;3.458;2023-06-19T09:19:38;21.35;;;16.58;;
21833;SDS011;11079;51.092;3.458;2023-06-19T09:22:12;16.58;;;13.88;;
21833;SDS011;11079;51.092;3.458;2023-06-19T09:24:47;19.08;;;15.48;;
21833;SDS011;11079;51.092;3.458;2023-06-19T09:27:14;19.58;;;14.27;;
21833;SDS011;11079;51.092;3.458;2023-06-19T09:29:47;18.38;;;14.07;;
21833;SDS011;11079;51.092;3.458;2023-06-19T09:32:18;20.23;;;15.85;;
21833;SDS011;11079;51.092;3.458;2023-06-19T09:34:44;17.63;;;15.35;;
21833;SDS011;11079;51.092;3.458;2023-06-19T09:37:11;19.27;;;16.25;;
21833;SDS011;11079;51.092;3.458;2023-06-19T09:39:37;17.58;;;14.52;;
21833;SDS011;11079;51.092;3.458;2023-06-19T09:42:05;16.73;;;14.77;;
21833;SDS011;11079;51.092;3.458;2023-06-19T09:44:42;18.42;;;15.23;;
21833;SDS011;11079;51.092;3.458;2023-06-19T09:47:13;17.17;;;15.38;;
21833;SDS011;11079;51.092;3.458;2023-06-19T09:49:48;18.23;;;16.13;;
21833;SDS011;11079;51.092;3.458;2023-06-19T09:52:15;18.38;;;15.38;;
21833;SDS011;11079;51.092;3.458;2023-06-19T09:54:42;20.73;;;15.77;;
21833;SDS011;11079;51.092;3.458;2023-06-19T09:57:10;18.20;;;14.35;;
21833;SDS011;11079;51.092;3.458;2023-06-19T09:59:36;17.55;;;14.23;;
21833;SDS011;11079;51.092;3.458;2023-06-19T10:02:05;16.15;;;13.00;;
21833;SDS011;11079;51.092;3.458;2023-06-19T10:04:41;18.10;;;14.35;;
21833;SDS011;11079;51.092;3.458;2023-06-19T10:07:20;16.83;;;14.90;;
21833;SDS011;11079;51.092;3.458;2023-06-19T10:09:56;18.00;;;15.73;;
21833;SDS011;11079;51.092;3.458;2023-06-19T10:12:45;17.23;;;15.43;;
21833;SDS011;11079;51.092;3.458;2023-06-19T10:17:46;17.95;;;16.17;;
21833;SDS011;11079;51.092;3.458;2023-06-19T10:23:11;18.98;;;16.95;;
21833;SDS011;11079;51.092;3.458;2023-06-19T10:25:45;18.95;;;16.95;;
21833;SDS011;11079;51.092;3.458;2023-06-19T10:28:18;18.92;;;17.10;;
21833;SDS011;11079;51.092;3.458;2023-06-19T10:31:05;18.88;;;16.23;;
21833;SDS011;11079;51.092;3.458;2023-06-19T10:33:33;16.48;;;14.88;;
21833;SDS011;11079;51.092;3.458;2023-06-19T10:36:12;18.38;;;16.35;;
21833;SDS011;11079;51.092;3.458;2023-06-19T10:38:39;17.17;;;14.65;;
21833;SDS011;11079;51.092;3.458;2023-06-19T10:41:05;18.60;;;16.80;;
21833;SDS011;11079;51.092;3.458;2023-06-19T10:43:40;16.67;;;14.98;;
21833;SDS011;11079;51.092;3.458;2023-06-19T10:46:06;16.63;;;14.93;;
21833;SDS011;11079;51.092;3.458;2023-06-19T10:48:31;16.50;;;14.93;;
21833;SDS011;11079;51.092;3.458;2023-06-19T10:50:57;12.48;;;11.35;;
21833;SDS011;11079;51.092;3.458;2023-06-19T10:53:24;15.20;;;13.70;;
21833;SDS011;11079;51.092;3.458;2023-06-19T10:55:54;14.88;;;13.38;;
21833;SDS011;11079;51.092;3.458;2023-06-19T10:58:21;11.10;;;9.98;;
21833;SDS011;11079;51.092;3.458;2023-06-19T11:00:47;13.77;;;12.05;;
21833;SDS011;11079;51.092;3.458;2023-06-19T11:03:12;15.55;;;13.80;;
21833;SDS011;11079;51.092;3.458;2023-06-19T11:05:45;12.88;;;11.35;;
21833;SDS011;11079;51.092;3.458;2023-06-19T11:08:35;13.50;;;12.20;;
21833;SDS011;11079;51.092;3.458;2023-06-19T11:13:31;15.70;;;14.10;;
21833;SDS011;11079;51.092;3.458;2023-06-19T11:16:06;14.85;;;13.30;;
21833;SDS011;11079;51.092;3.458;2023-06-19T11:19:18;13.63;;;12.13;;
21833;SDS011;11079;51.092;3.458;2023-06-19T11:21:47;12.95;;;11.65;;
21833;SDS011;11079;51.092;3.458;2023-06-19T11:24:18;15.05;;;13.55;;
21833;SDS011;11079;51.092;3.458;2023-06-19T11:26:48;12.55;;;11.30;;
21833;SDS011;11079;51.092;3.458;2023-06-19T11:29:19;10.38;;;9.38;;
21833;SDS011;11079;51.092;3.458;2023-06-19T11:31:46;11.20;;;8.63;;
21833;SDS011;11079;51.092;3.458;2023-06-19T11:34:12;11.35;;;9.65;;
21833;SDS011;11079;51.092;3.458;2023-06-19T11:36:40;11.60;;;10.40;;
21833;SDS011;11079;51.092;3.458;2023-06-19T11:39:13;10.30;;;8.50;;
21833;SDS011;11079;51.092;3.458;2023-06-19T11:41:43;11.90;;;9.85;;
21833;SDS011;11079;51.092;3.458;2023-06-19T11:44:09;10.80;;;8.60;;
21833;SDS011;11079;51.092;3.458;2023-06-19T11:46:35;9.48;;;8.48;;
21833;SDS011;11079;51.092;3.458;2023-06-19T11:49:08;12.48;;;10.32;;
21833;SDS011;11079;51.092;3.458;2023-06-19T11:51:37;10.57;;;9.48;;
21833;SDS011;11079;51.092;3.458;2023-06-19T11:54:07;10.55;;;8.60;;
21833;SDS011;11079;51.092;3.458;2023-06-19T11:56:37;10.82;;;9.50;;
21833;SDS011;11079;51.092;3.458;2023-06-19T11:59:04;11.10;;;10.00;;
21833;SDS011;11079;51.092;3.458;2023-06-19T12:01:33;13.73;;;12.32;;
21833;SDS011;11079;51.092;3.458;2023-06-19T12:03:59;12.73;;;11.18;;
21833;SDS011;11079;51.092;3.458;2023-06-19T12:06:26;12.43;;;10.05;;
21833;SDS011;11079;51.092;3.458;2023-06-19T12:08:52;9.60;;;8.52;;
21833;SDS011;11079;51.092;3.458;2023-06-19T12:11:18;10.50;;;7.65;;
21833;SDS011;11079;51.092;3.458;2023-06-19T12:13:44;13.38;;;9.70;;
21833;SDS011;11079;51.092;3.458;2023-06-19T12:16:10;7.60;;;6.32;;
21833;SDS011;11079;51.092;3.458;2023-06-19T12:18:36;10.38;;;6.22;;
21833;SDS011;11079;51.092;3.458;2023-06-19T12:21:02;8.35;;;7.10;;
21833;SDS011;11079;51.092;3.458;2023-06-19T12:23:28;7.72;;;7.00;;
21833;SDS011;11079;51.092;3.458;2023-06-19T12:25:53;6.15;;;5.53;;
21833;SDS011;11079;51.092;3.458;2023-06-19T12:28:19;7.13;;;5.35;;
21833;SDS011;11079;51.092;3.458;2023-06-19T12:30:46;6.90;;;4.03;;
21833;SDS011;11079;51.092;3.458;2023-06-19T12:33:14;8.23;;;5.20;;
21833;SDS011;11079;51.092;3.458;2023-06-19T12:35:40;6.07;;;5.28;;
21833;SDS011;11079;51.092;3.458;2023-06-19T12:38:06;5.47;;;4.70;;
21833;SDS011;11079;51.092;3.458;2023-06-19T12:40:33;8.43;;;6.28;;
21833;SDS011;11079;51.092;3.458;2023-06-19T12:42:58;14.75;;;10.07;;
21833;SDS011;11079;51.092;3.458;2023-06-19T12:45:24;11.30;;;8.63;;
21833;SDS011;11079;51.092;3.458;2023-06-19T12:47:50;7.78;;;7.07;;
21833;SDS011;11079;51.092;3.458;2023-06-19T12:50:15;7.90;;;7.00;;
21833;SDS011;11079;51.092;3.458;2023-06-19T12:52:41;9.45;;;6.75;;
21833;SDS011;11079;51.092;3.458;2023-06-19T12:55:07;10.82;;;6.75;;
21833;SDS011;11079;51.092;3.458;2023-06-19T12:57:33;8.65;;;6.40;;
21833;SDS011;11079;51.092;3.458;2023-06-19T12:59:58;11.13;;;8.20;;
21833;SDS011;11079;51.092;3.458;2023-06-19T13:02:24;9.93;;;8.43;;
21833;SDS011;11079;51.092;3.458;2023-06-19T13:04:49;13.63;;;9.73;;
21833;SDS011;11079;51.092;3.458;2023-06-19T13:07:15;11.60;;;8.88;;
21833;SDS011;11079;51.092;3.458;2023-06-19T13:09:41;11.48;;;8.88;;
21833;SDS011;11079;51.092;3.458;2023-06-19T13:12:07;8.68;;;7.50;;
21833;SDS011;11079;51.092;3.458;2023-06-19T13:14:33;8.35;;;6.78;;
21833;SDS011;11079;51.092;3.458;2023-06-19T13:16:59;11.55;;;7.50;;
21833;SDS011;11079;51.092;3.458;2023-06-19T13:19:25;10.57;;;6.85;;
21833;SDS011;11079;51.092;3.458;2023-06-19T13:21:51;8.88;;;6.50;;
21833;SDS011;11079;51.092;3.458;2023-06-19T13:24:17;7.95;;;5.63;;
21833;SDS011;11079;51.092;3.458;2023-06-19T13:26:43;9.02;;;7.75;;
21833;SDS011;11079;51.092;3.458;2023-06-19T13:29:10;7.75;;;6.85;;
21833;SDS011;11079;51.092;3.458;2023-06-19T13:31:36;9.55;;;7.07;;
21833;SDS011;11079;51.092;3.458;2023-06-19T13:34:02;7.80;;;6.25;;
21833;SDS011;11079;51.092;3.458;2023-06-19T13:36:28;9.75;;;6.72;;
21833;SDS011;11079;51.092;3.458;2023-06-19T13:38:54;8.82;;;6.13;;
21833;SDS011;11079;51.092;3.458;2023-06-19T13:41:20;8.50;;;6.38;;
21833;SDS011;11079;51.092;3.458;2023-06-19T13:43:48;9.48;;;6.55;;
21833;SDS011;11079;51.092;3.458;2023-06-19T13:46:14;7.63;;;6.40;;
21833;SDS011;11079;51.092;3.458;2023-06-19T13:48:40;7.78;;;6.13;;
21833;SDS011;11079;51.092;3.458;2023-06-19T13:51:06;7.55;;;5.57;;
21833;SDS011;11079;51.092;3.458;2023-06-19T13:53:31;10.43;;;7.22;;
21833;SDS011;11079;51.092;3.458;2023-06-19T13:55:58;6.85;;;5.78;;
21833;SDS011;11079;51.092;3.458;2023-06-19T13:58:23;9.93;;;7.80;;
21833;SDS011;11079;51.092;3.458;2023-06-19T14:00:49;7.68;;;6.43;;
21833;SDS011;11079;51.092;3.458;2023-06-19T14:03:15;8.70;;;6.55;;
21833;SDS011;11079;51.092;3.458;2023-06-19T14:05:41;9.55;;;6.78;;
21833;SDS011;11079;51.092;3.458;2023-06-19T14:08:08;8.77;;;6.35;;
21833;SDS011;11079;51.092;3.458;2023-06-19T14:10:38;7.85;;;5.85;;
21833;SDS011;11079;51.092;3.458;2023-06-19T14:13:03;8.32;;;6.57;;
21833;SDS011;11079;51.092;3.458;2023-06-19T14:15:29;7.75;;;6.25;;
21833;SDS011;11079;51.092;3.458;2023-06-19T14:17:54;7.78;;;5.70;;
21833;SDS011;11079;51.092;3.458;2023-06-19T14:20:20;10.82;;;6.43;;
21833;SDS011;11079;51.092;3.458;2023-06-19T14:22:45;10.15;;;6.70;;
21833;SDS011;11079;51.092;3.458;2023-06-19T14:25:11;10.50;;;6.53;;
21833;SDS011;11079;51.092;3.458;2023-06-19T14:27:37;9.38;;;7.40;;
21833;SDS011;11079;51.092;3.458;2023-06-19T14:30:03;8.85;;;6.53;;
21833;SDS011;11079;51.092;3.458;2023-06-19T14:32:29;7.38;;;5.55;;
21833;SDS011;11079;51.092;3.458;2023-06-19T14:34:54;7.65;;;5.13;;
21833;SDS011;11079;51.092;3.458;2023-06-19T14:37:20;8.35;;;5.43;;
21833;SDS011;11079;51.092;3.458;2023-06-19T14:39:46;7.65;;;5.60;;
21833;SDS011;11079;51.092;3.458;2023-06-19T14:42:11;8.27;;;5.80;;
21833;SDS011;11079;51.092;3.458;2023-06-19T14:44:37;7.82;;;5.93;;